createdAt,value
2019-01-14T00:00:18.459Z,7.53
2019-01-14T00:02:47.023Z,7.68
2019-01-14T00:05:15.511Z,7.68
2019-01-14T00:07:43.962Z,7.67
2019-01-14T00:10:12.518Z,7.73
2019-01-14T00:12:40.939Z,7.55
2019-01-14T00:15:10.019Z,7.53
2019-01-14T00:17:38.570Z,7.70
2019-01-14T00:20:12.959Z,7.48
2019-01-14T00:22:41.482Z,7.43
2019-01-14T00:25:10.140Z,7.61
2019-01-14T00:27:38.562Z,7.42
2019-01-14T00:30:15.523Z,7.58
2019-01-14T00:32:44.005Z,7.38
2019-01-14T00:35:12.567Z,7.37
2019-01-14T00:37:41.093Z,7.32
2019-01-14T00:40:12.852Z,7.29
2019-01-14T00:42:41.738Z,7.46
2019-01-14T00:45:10.523Z,7.40
2019-01-14T00:47:38.941Z,7.18
2019-01-14T00:50:10.394Z,7.13
2019-01-14T00:52:39.233Z,7.18
2019-01-14T00:55:08.895Z,7.33
2019-01-14T00:57:37.453Z,7.48
2019-01-14T01:00:18.129Z,7.33
2019-01-14T01:02:46.681Z,7.21
2019-01-14T01:05:15.311Z,7.18
2019-01-14T01:07:44.002Z,7.20
2019-01-14T01:10:15.307Z,7.22
2019-01-14T01:12:43.810Z,7.12
2019-01-14T01:15:15.291Z,7.31
2019-01-14T01:17:43.714Z,7.29
2019-01-14T01:20:14.838Z,7.12
2019-01-14T01:22:43.434Z,7.37
2019-01-14T01:25:12.392Z,7.26
2019-01-14T01:27:40.804Z,7.16
2019-01-14T01:30:14.529Z,7.24
2019-01-14T01:32:42.941Z,7.17
2019-01-14T01:35:13.698Z,7.13
2019-01-14T01:37:42.544Z,7.25
2019-01-14T01:40:14.102Z,7.28
2019-01-14T01:42:42.527Z,7.35
2019-01-14T01:45:11.932Z,7.24
2019-01-14T01:47:40.352Z,7.27
2019-01-14T01:50:11.914Z,7.31
2019-01-14T01:52:40.425Z,7.27
2019-01-14T01:55:09.882Z,7.33
2019-01-14T01:57:38.395Z,7.37
2019-01-14T02:00:15.392Z,7.43
2019-01-14T02:02:43.819Z,7.42
2019-01-14T02:05:12.926Z,7.43
2019-01-14T02:07:41.545Z,7.63
2019-01-14T02:10:13.278Z,7.66
2019-01-14T02:12:41.765Z,7.46
2019-01-14T02:15:12.563Z,7.60
2019-01-14T02:17:41.825Z,7.56
2019-01-14T02:20:13.283Z,7.58
2019-01-14T02:22:41.923Z,7.75
2019-01-14T02:25:11.322Z,7.56
2019-01-14T02:27:39.742Z,7.61
2019-01-14T02:30:11.565Z,7.71
2019-01-14T02:32:39.983Z,7.69
2019-01-14T02:35:09.540Z,7.69
2019-01-14T02:37:38.187Z,7.72
2019-01-14T02:40:09.651Z,7.74
2019-01-14T02:42:38.097Z,7.92
2019-01-14T02:45:08.285Z,7.97
2019-01-14T02:47:36.699Z,7.78
2019-01-14T02:50:08.153Z,7.96
2019-01-14T02:52:39.741Z,7.87
2019-01-14T02:55:08.637Z,7.83
2019-01-14T02:57:37.057Z,7.89
2019-01-14T03:00:11.265Z,7.79
2019-01-14T03:02:39.731Z,7.85
2019-01-14T03:05:08.295Z,7.90
2019-01-14T03:07:36.955Z,7.98
2019-01-14T03:10:08.812Z,7.85
2019-01-14T03:12:37.234Z,7.97
2019-01-14T03:15:08.635Z,7.94
2019-01-14T03:17:37.124Z,7.83
2019-01-14T03:20:08.595Z,7.80
2019-01-14T03:22:37.158Z,7.94
2019-01-14T03:25:06.801Z,7.87
2019-01-14T03:27:35.216Z,7.86
2019-01-14T03:30:05.947Z,7.63
2019-01-14T03:32:34.369Z,7.62
2019-01-14T03:35:02.806Z,7.61
2019-01-14T03:37:31.310Z,7.61
2019-01-14T03:39:59.731Z,7.83
2019-01-14T03:42:28.226Z,7.91
2019-01-14T03:44:56.675Z,7.81
2019-01-14T03:47:25.095Z,7.86
2019-01-14T03:49:53.584Z,7.77
2019-01-14T03:52:22.026Z,7.73
2019-01-14T03:54:50.514Z,7.80
2019-01-14T03:57:18.932Z,7.71
2019-01-14T04:00:08.913Z,7.61
2019-01-14T04:02:37.329Z,7.60
2019-01-14T04:05:07.594Z,7.68
2019-01-14T04:07:36.103Z,7.55
2019-01-14T04:10:07.803Z,7.59
2019-01-14T04:12:36.228Z,7.45
2019-01-14T04:15:06.489Z,7.50
2019-01-14T04:17:34.904Z,7.46
2019-01-14T04:20:04.759Z,7.45
2019-01-14T04:22:33.286Z,7.42
2019-01-14T04:25:01.707Z,7.37
2019-01-14T04:27:30.123Z,7.24
2019-01-14T04:29:58.796Z,7.27
2019-01-14T04:32:27.211Z,7.17
2019-01-14T04:34:55.697Z,7.11
2019-01-14T04:37:24.150Z,7.12
2019-01-14T04:39:52.639Z,7.07
2019-01-14T04:42:21.068Z,7.13
2019-01-14T04:44:49.506Z,7.12
2019-01-14T04:47:17.931Z,7.24
2019-01-14T04:49:46.347Z,7.24
2019-01-14T04:52:14.797Z,7.29
2019-01-14T04:54:43.218Z,7.28
2019-01-14T04:57:11.634Z,7.31
2019-01-14T04:59:40.084Z,7.39
2019-01-14T05:02:08.503Z,7.40
2019-01-14T05:04:36.993Z,7.43
2019-01-14T05:07:05.548Z,7.48
2019-01-14T05:09:34.034Z,7.39
2019-01-14T05:12:02.451Z,7.32
2019-01-14T05:14:30.897Z,7.42
2019-01-14T05:16:59.315Z,7.37
2019-01-14T05:19:27.731Z,7.36
2019-01-14T05:21:56.176Z,7.24
2019-01-14T05:24:24.665Z,7.25
2019-01-14T05:26:53.078Z,7.37
2019-01-14T05:29:21.603Z,7.38
2019-01-14T05:31:50.021Z,7.54
2019-01-14T05:34:18.517Z,7.60
2019-01-14T05:36:47.043Z,7.45
2019-01-14T05:39:15.507Z,7.58
2019-01-14T05:41:43.925Z,7.38
2019-01-14T05:44:12.459Z,7.46
2019-01-14T05:46:40.873Z,7.50
2019-01-14T05:49:09.294Z,7.33
2019-01-14T05:51:37.743Z,7.34
2019-01-14T05:54:06.191Z,7.41
2019-01-14T05:56:34.647Z,7.36
2019-01-14T05:59:03.114Z,7.25
2019-01-14T06:01:31.538Z,7.17
2019-01-14T06:03:59.954Z,7.48
2019-01-14T06:06:28.407Z,7.50
2019-01-14T06:08:56.824Z,7.45
2019-01-14T06:11:25.238Z,7.40
2019-01-14T06:13:53.718Z,6.96
2019-01-14T06:16:22.152Z,7.12
2019-01-14T06:18:50.754Z,6.96
2019-01-14T06:21:19.282Z,7.00
2019-01-14T06:23:47.707Z,7.08
2019-01-14T06:26:16.135Z,6.91
2019-01-14T06:28:44.647Z,6.76
2019-01-14T06:31:13.086Z,6.91
2019-01-14T06:33:41.528Z,6.81
2019-01-14T06:36:10.222Z,6.45
2019-01-14T06:38:38.637Z,6.46
2019-01-14T06:41:07.058Z,6.37
2019-01-14T06:43:35.624Z,6.37
2019-01-14T06:46:04.209Z,6.50
2019-01-14T06:48:32.640Z,6.32
2019-01-14T06:51:01.154Z,6.33
2019-01-14T06:53:29.642Z,6.37
2019-01-14T06:55:58.133Z,6.42
2019-01-14T06:58:26.606Z,6.34
2019-01-14T07:00:55.022Z,6.30
2019-01-14T07:03:23.530Z,6.31
2019-01-14T07:05:52.054Z,6.33
2019-01-14T07:08:20.475Z,6.27
2019-01-14T07:10:49.337Z,6.43
2019-01-14T07:13:17.814Z,6.33
2019-01-14T07:15:46.303Z,6.33
2019-01-14T07:18:14.793Z,6.59
2019-01-14T07:20:43.249Z,6.40
2019-01-14T07:23:11.660Z,6.44
2019-01-14T07:25:40.078Z,6.33
2019-01-14T07:28:08.607Z,6.28
2019-01-14T07:30:37.095Z,6.43
2019-01-14T07:33:05.510Z,6.30
2019-01-14T07:35:33.955Z,6.33
2019-01-14T07:38:06.731Z,6.43
2019-01-14T07:40:32.573Z,6.33
2019-01-14T07:43:01.015Z,6.56
2019-01-14T07:45:29.502Z,6.58
2019-01-14T07:47:57.990Z,6.75
2019-01-14T07:50:26.517Z,6.53
2019-01-14T07:52:55.005Z,6.59
2019-01-14T07:55:23.562Z,6.65
2019-01-14T07:57:52.002Z,6.45
2019-01-14T08:00:22.654Z,6.73
2019-01-14T08:02:51.247Z,6.45
2019-01-14T08:05:19.831Z,6.41
2019-01-14T08:07:48.348Z,6.35
2019-01-14T08:10:17.338Z,6.29
2019-01-14T08:12:45.785Z,6.33
2019-01-14T08:15:16.754Z,6.27
2019-01-14T08:17:45.169Z,6.31
2019-01-14T08:20:13.768Z,6.40
2019-01-14T08:22:42.345Z,6.41
2019-01-14T08:25:13.362Z,6.47
2019-01-14T08:27:41.995Z,6.43
2019-01-14T08:30:18.572Z,6.43
2019-01-14T08:32:47.107Z,6.55
2019-01-14T08:35:15.668Z,6.60
2019-01-14T08:37:44.223Z,6.80
2019-01-14T08:40:14.923Z,6.76
2019-01-14T08:42:43.407Z,6.81
2019-01-14T08:45:13.059Z,6.82
2019-01-14T08:47:41.659Z,6.76
2019-01-14T08:50:13.188Z,6.78
2019-01-14T08:52:41.675Z,6.79
2019-01-14T08:55:10.257Z,6.87
2019-01-14T08:57:38.814Z,6.79
2019-01-14T09:00:15.905Z,7.02
2019-01-14T09:02:44.393Z,7.05
2019-01-14T09:05:13.249Z,6.84
2019-01-14T09:07:41.761Z,6.88
2019-01-14T09:10:13.223Z,6.85
2019-01-14T09:12:41.658Z,6.76
2019-01-14T09:15:13.148Z,6.72
2019-01-14T09:17:41.767Z,6.68
2019-01-14T09:20:13.286Z,6.90
2019-01-14T09:22:41.811Z,6.86
2019-01-14T09:25:10.793Z,6.67
2019-01-14T09:27:39.319Z,6.81
2019-01-14T09:30:16.677Z,6.52
2019-01-14T09:32:45.188Z,6.64
2019-01-14T09:35:13.765Z,6.65
2019-01-14T09:37:42.378Z,6.59
2019-01-14T09:40:13.806Z,6.68
2019-01-14T09:42:42.226Z,6.68
2019-01-14T09:45:10.954Z,6.63
2019-01-14T09:47:39.437Z,7.03
2019-01-14T09:50:10.802Z,6.94
2019-01-14T09:52:39.399Z,6.83
2019-01-14T09:55:16.207Z,6.88
2019-01-14T09:57:44.747Z,6.89
2019-01-14T10:00:13.302Z,6.86
2019-01-14T10:02:42.258Z,6.88
2019-01-14T10:05:16.077Z,6.94
2019-01-14T10:07:44.568Z,6.94
2019-01-14T10:10:15.222Z,6.99
2019-01-14T10:12:43.891Z,7.01
2019-01-14T10:15:15.189Z,7.08
2019-01-14T10:17:44.152Z,7.18
2019-01-14T10:20:12.903Z,7.31
2019-01-14T10:22:41.391Z,7.29
2019-01-14T10:25:09.954Z,7.38
2019-01-14T10:27:38.547Z,7.34
2019-01-14T10:30:15.574Z,7.41
2019-01-14T10:32:44.319Z,7.57
2019-01-14T10:35:12.973Z,7.46
2019-01-14T10:37:41.462Z,7.62
2019-01-14T10:40:17.169Z,7.50
2019-01-14T10:42:45.819Z,7.53
2019-01-14T10:45:22.049Z,7.53
2019-01-14T10:47:50.540Z,7.59
2019-01-14T10:50:19.398Z,7.78
2019-01-14T10:52:47.983Z,7.73
2019-01-14T10:55:16.542Z,7.08
2019-01-14T10:57:45.102Z,6.41
2019-01-14T11:00:22.306Z,5.58
2019-01-14T11:02:50.872Z,5.58
2019-01-14T11:05:23.111Z,5.22
2019-01-14T11:07:52.083Z,5.11
2019-01-14T11:10:20.710Z,5.23
2019-01-14T11:12:49.366Z,5.32
2019-01-14T11:15:20.306Z,5.27
2019-01-14T11:17:48.789Z,5.33
2019-01-14T11:20:22.742Z,5.41
2019-01-14T11:22:51.306Z,5.45
2019-01-14T11:25:20.262Z,5.74
2019-01-14T11:27:48.824Z,5.79
2019-01-14T11:30:20.449Z,5.82
2019-01-14T11:32:48.934Z,6.04
2019-01-14T11:35:17.603Z,6.26
2019-01-14T11:37:46.132Z,6.33
2019-01-14T11:40:18.002Z,6.41
2019-01-14T11:42:46.418Z,6.39
2019-01-14T11:45:15.243Z,6.23
2019-01-14T11:47:43.794Z,6.23
2019-01-14T11:50:14.651Z,6.27
2019-01-14T11:52:43.430Z,6.12
2019-01-14T11:55:12.124Z,6.27
2019-01-14T11:57:40.607Z,6.38
2019-01-14T12:00:15.083Z,6.23
2019-01-14T12:02:43.504Z,6.31
2019-01-14T12:05:12.062Z,6.20
2019-01-14T12:07:40.911Z,6.09
2019-01-14T12:10:10.464Z,5.98
2019-01-14T12:12:38.950Z,5.83
2019-01-14T12:15:13.392Z,5.99
2019-01-14T12:17:41.895Z,5.96
2019-01-14T12:20:13.035Z,5.89
2019-01-14T12:22:41.552Z,5.79
2019-01-14T12:25:10.325Z,5.92
2019-01-14T12:27:38.838Z,6.02
2019-01-14T12:30:22.749Z,6.01
2019-01-14T12:32:51.179Z,6.11
2019-01-14T12:35:19.588Z,6.10
2019-01-14T12:37:48.100Z,6.28
2019-01-14T12:40:16.653Z,6.52
2019-01-14T12:42:45.072Z,6.61
2019-01-14T12:45:21.178Z,6.48
2019-01-14T12:47:49.667Z,6.53
2019-01-14T12:50:19.954Z,6.69
2019-01-14T12:52:48.535Z,6.76
2019-01-14T12:55:18.793Z,6.76
2019-01-14T12:57:47.486Z,6.91
2019-01-14T13:00:18.290Z,6.97
2019-01-14T13:02:46.848Z,7.19
2019-01-14T13:05:16.805Z,7.04
2019-01-14T13:07:45.418Z,6.92
2019-01-14T13:10:15.182Z,6.98
2019-01-14T13:12:43.781Z,7.01
2019-01-14T13:15:14.865Z,6.91
2019-01-14T13:17:43.354Z,6.77
2019-01-14T13:20:14.426Z,6.67
2019-01-14T13:22:43.051Z,6.53
2019-01-14T13:25:11.523Z,6.41
2019-01-14T13:27:40.278Z,6.44
2019-01-14T13:30:23.150Z,6.53
2019-01-14T13:32:51.643Z,6.56
2019-01-14T13:35:20.177Z,6.54
2019-01-14T13:37:49.100Z,6.60
2019-01-14T13:40:17.841Z,6.58
2019-01-14T13:42:46.332Z,6.56
2019-01-14T13:45:19.577Z,6.67
2019-01-14T13:47:48.440Z,6.60
2019-01-14T13:50:21.996Z,6.51
2019-01-14T13:52:50.600Z,6.60
2019-01-14T13:55:20.471Z,6.66
2019-01-14T13:57:48.960Z,6.51
2019-01-14T14:00:24.868Z,6.53
2019-01-14T14:02:53.431Z,6.23
2019-01-14T14:05:21.924Z,5.99
2019-01-14T14:07:50.442Z,5.76
2019-01-14T14:10:24.172Z,5.79
2019-01-14T14:12:52.664Z,5.71
2019-01-14T14:15:21.631Z,5.67
2019-01-14T14:17:50.127Z,5.50
2019-01-14T14:20:19.208Z,5.68
2019-01-14T14:22:48.238Z,5.88
2019-01-14T14:25:16.723Z,6.02
2019-01-14T14:27:45.150Z,5.89
2019-01-14T14:30:19.855Z,5.67
2019-01-14T14:32:48.276Z,5.66
2019-01-14T14:35:16.841Z,5.82
2019-01-14T14:37:45.509Z,5.96
2019-01-14T14:40:14.276Z,5.62
2019-01-14T14:42:42.770Z,5.51
2019-01-14T14:45:12.815Z,5.87
2019-01-14T14:47:41.242Z,5.65
2019-01-14T14:50:17.540Z,5.81
2019-01-14T14:52:46.401Z,5.73
2019-01-14T14:55:14.958Z,5.46
2019-01-14T14:57:43.555Z,5.82
2019-01-14T15:00:14.909Z,5.70
2019-01-14T15:02:43.332Z,5.63
2019-01-14T15:05:12.427Z,5.73
2019-01-14T15:07:40.843Z,5.60
2019-01-14T15:10:11.896Z,5.46
2019-01-14T15:12:40.446Z,5.68
2019-01-14T15:15:11.297Z,5.48
2019-01-14T15:17:39.714Z,5.45
2019-01-14T15:20:14.238Z,5.42
2019-01-14T15:22:42.733Z,5.54
2019-01-14T15:25:11.156Z,5.50
2019-01-14T15:27:39.616Z,5.58
2019-01-14T15:30:16.972Z,5.54
2019-01-14T15:32:45.530Z,5.39
2019-01-14T15:35:14.487Z,5.51
2019-01-14T15:37:43.055Z,5.52
2019-01-14T15:40:14.357Z,5.57
2019-01-14T15:42:42.863Z,5.55
2019-01-14T15:45:17.017Z,5.50
2019-01-14T15:47:45.483Z,5.45
2019-01-14T15:50:14.139Z,5.20
2019-01-14T15:52:42.637Z,5.39
2019-01-14T15:55:16.712Z,5.51
2019-01-14T15:57:45.212Z,5.58
2019-01-14T16:00:16.683Z,5.52
2019-01-14T16:02:45.524Z,5.48
2019-01-14T16:05:14.707Z,5.49
2019-01-14T16:07:43.199Z,5.16
2019-01-14T16:10:14.569Z,5.09
2019-01-14T16:12:42.989Z,4.95
2019-01-14T16:15:11.840Z,4.94
2019-01-14T16:17:40.515Z,5.06
2019-01-14T16:20:14.403Z,4.89
2019-01-14T16:22:43.062Z,5.10
2019-01-14T16:25:11.955Z,4.80
2019-01-14T16:27:40.459Z,4.83
2019-01-14T16:30:20.456Z,4.81
2019-01-14T16:32:48.920Z,4.71
2019-01-14T16:35:17.436Z,4.93
2019-01-14T16:37:46.019Z,4.63
2019-01-14T16:40:18.214Z,4.95
2019-01-14T16:42:44.745Z,4.50
2019-01-14T16:45:21.662Z,4.57
2019-01-14T16:47:50.071Z,4.59
2019-01-14T16:50:18.751Z,4.68
2019-01-14T16:52:47.393Z,4.56
2019-01-14T16:55:17.506Z,4.77
2019-01-14T16:57:45.929Z,4.63
2019-01-14T17:00:17.192Z,4.54
2019-01-14T17:02:45.874Z,4.60
2019-01-14T17:05:15.444Z,4.50
2019-01-14T17:07:43.972Z,4.68
2019-01-14T17:10:14.526Z,4.60
2019-01-14T17:12:43.187Z,4.51
2019-01-14T17:15:11.806Z,4.45
2019-01-14T17:17:40.226Z,4.50
2019-01-14T17:20:17.550Z,4.63
2019-01-14T17:22:46.141Z,4.66
2019-01-14T17:25:14.818Z,4.55
2019-01-14T17:27:45.139Z,4.69
2019-01-14T17:30:15.889Z,4.51
2019-01-14T17:32:44.463Z,4.46
2019-01-14T17:35:13.383Z,4.48
2019-01-14T17:37:41.871Z,4.54
2019-01-14T17:40:13.213Z,4.64
2019-01-14T17:42:41.663Z,4.65
2019-01-14T17:45:11.027Z,4.54
2019-01-14T17:47:39.742Z,4.41
2019-01-14T17:50:18.912Z,4.50
2019-01-14T17:52:47.471Z,4.46
2019-01-14T17:55:16.434Z,4.35
2019-01-14T17:57:44.956Z,4.30
2019-01-14T18:00:16.420Z,4.55
2019-01-14T18:02:44.907Z,4.52
2019-01-14T18:05:14.312Z,4.55
2019-01-14T18:07:42.792Z,4.44
2019-01-14T18:10:14.250Z,4.34
2019-01-14T18:12:42.754Z,4.61
2019-01-14T18:15:11.315Z,4.56
2019-01-14T18:17:39.813Z,4.58
2019-01-14T18:20:11.437Z,4.22
2019-01-14T18:22:39.848Z,4.20
2019-01-14T18:25:08.506Z,4.10
2019-01-14T18:27:37.138Z,4.19
2019-01-14T18:30:11.332Z,4.62
2019-01-14T18:32:39.839Z,4.72
2019-01-14T18:35:08.511Z,4.58
2019-01-14T18:37:36.935Z,4.52
2019-01-14T18:40:10.777Z,4.27
2019-01-14T18:42:39.236Z,4.35
2019-01-14T18:45:10.363Z,4.72
2019-01-14T18:47:38.959Z,4.53
2019-01-14T18:50:18.889Z,4.46
2019-01-14T18:52:47.935Z,4.39
2019-01-14T18:55:16.508Z,4.28
2019-01-14T18:57:44.967Z,4.32
2019-01-14T19:00:21.847Z,4.55
2019-01-14T19:02:50.531Z,4.69
2019-01-14T19:05:20.156Z,4.48
2019-01-14T19:07:49.015Z,4.52
2019-01-14T19:10:17.627Z,4.48
2019-01-14T19:12:46.054Z,4.42
2019-01-14T19:15:16.619Z,4.54
2019-01-14T19:17:45.228Z,4.36
2019-01-14T19:20:16.488Z,4.35
2019-01-14T19:22:45.042Z,4.40
2019-01-14T19:25:14.495Z,4.55
2019-01-14T19:27:42.916Z,4.21
2019-01-14T19:30:14.480Z,4.15
2019-01-14T19:32:42.939Z,4.25
2019-01-14T19:35:11.498Z,3.95
2019-01-14T19:37:39.947Z,3.73
2019-01-14T19:40:11.944Z,4.11
2019-01-14T19:42:40.451Z,4.24
2019-01-14T19:45:10.813Z,3.92
2019-01-14T19:47:39.371Z,4.16
2019-01-14T19:50:16.400Z,4.07
2019-01-14T19:52:44.944Z,4.03
2019-01-14T19:55:13.718Z,4.01
2019-01-14T19:57:42.218Z,4.00
2019-01-14T20:00:17.024Z,4.30
2019-01-14T20:02:45.455Z,4.06
2019-01-14T20:05:14.020Z,4.15
2019-01-14T20:07:42.478Z,4.58
2019-01-14T20:10:14.074Z,4.30
2019-01-14T20:12:42.629Z,4.59
2019-01-14T20:15:14.213Z,4.32
2019-01-14T20:17:42.627Z,4.68
2019-01-14T20:20:11.705Z,4.78
2019-01-14T20:22:40.161Z,4.61
2019-01-14T20:25:10.925Z,4.75
2019-01-14T20:27:39.517Z,4.43
2019-01-14T20:30:16.583Z,4.58
2019-01-14T20:32:45.008Z,4.56
2019-01-14T20:35:13.671Z,4.76
2019-01-14T20:37:42.187Z,4.56
2019-01-14T20:40:13.895Z,4.51
2019-01-14T20:42:42.394Z,4.72
2019-01-14T20:45:15.965Z,4.83
2019-01-14T20:47:44.527Z,4.76
2019-01-14T20:50:15.446Z,4.38
2019-01-14T20:52:43.954Z,4.33
2019-01-14T20:55:12.525Z,4.25
2019-01-14T20:57:41.026Z,4.32
2019-01-14T21:00:19.067Z,4.43
2019-01-14T21:02:47.586Z,4.32
2019-01-14T21:05:16.245Z,4.24
2019-01-14T21:07:45.041Z,4.34
2019-01-14T21:10:15.195Z,4.38
2019-01-14T21:12:43.683Z,4.63
2019-01-14T21:15:12.750Z,4.46
2019-01-14T21:17:41.248Z,4.53
2019-01-14T21:20:12.947Z,4.40
2019-01-14T21:22:41.395Z,4.42
2019-01-14T21:25:09.954Z,4.35
2019-01-14T21:27:38.382Z,4.32
2019-01-14T21:30:09.893Z,4.29
2019-01-14T21:32:38.381Z,4.29
2019-01-14T21:35:08.247Z,4.52
2019-01-14T21:37:36.770Z,4.45
2019-01-14T21:40:08.299Z,4.46
2019-01-14T21:42:36.716Z,4.51
2019-01-14T21:45:08.274Z,4.41
2019-01-14T21:47:36.768Z,4.37
2019-01-14T21:50:08.238Z,4.27
2019-01-14T21:52:36.729Z,4.24
2019-01-14T21:55:08.392Z,4.24
2019-01-14T21:57:36.811Z,4.13
2019-01-14T22:00:08.743Z,4.23
2019-01-14T22:02:37.167Z,4.21
2019-01-14T22:05:06.346Z,4.12
2019-01-14T22:07:34.831Z,4.11
2019-01-14T22:10:04.592Z,4.14
2019-01-14T22:12:33.015Z,4.23
2019-01-14T22:15:01.469Z,4.23
2019-01-14T22:17:29.884Z,4.13
2019-01-14T22:19:58.309Z,4.17
2019-01-14T22:22:26.830Z,4.13
2019-01-14T22:24:55.253Z,4.27
2019-01-14T22:27:23.743Z,3.95
2019-01-14T22:29:52.276Z,3.96
2019-01-14T22:32:20.699Z,3.95
2019-01-14T22:34:49.191Z,4.02
2019-01-14T22:37:17.651Z,4.00
2019-01-14T22:39:46.071Z,4.18
2019-01-14T22:42:14.516Z,4.11
2019-01-14T22:44:42.943Z,4.16
2019-01-14T22:47:11.365Z,4.19
2019-01-14T22:49:39.788Z,4.09
2019-01-14T22:52:08.307Z,4.04
2019-01-14T22:54:36.730Z,4.13
2019-01-14T22:57:05.152Z,4.09
2019-01-14T22:59:33.639Z,4.14
2019-01-14T23:02:02.064Z,4.44
2019-01-14T23:04:30.552Z,4.20
2019-01-14T23:06:59.329Z,4.21
2019-01-14T23:09:27.753Z,4.22
2019-01-14T23:11:56.175Z,4.16
2019-01-14T23:14:24.699Z,4.23
2019-01-14T23:16:53.119Z,4.16
2019-01-14T23:19:21.546Z,4.10
2019-01-14T23:21:50.382Z,4.14
2019-01-14T23:24:18.803Z,4.33
2019-01-14T23:26:47.223Z,4.31
2019-01-14T23:29:15.671Z,4.19
2019-01-14T23:31:44.095Z,4.24
2019-01-14T23:34:12.582Z,4.20
2019-01-14T23:36:41.114Z,4.19
2019-01-14T23:39:09.605Z,4.18
2019-01-14T23:41:38.023Z,4.04
2019-01-14T23:44:06.610Z,4.05
2019-01-14T23:46:35.036Z,3.89
2019-01-14T23:49:03.460Z,4.03
2019-01-14T23:51:32.003Z,4.00
2019-01-14T23:54:00.418Z,3.92
2019-01-14T23:56:28.844Z,3.79
2019-01-14T23:58:57.291Z,3.88
